createdAt,value
2022-10-18T00:01:12.159Z,13.23
2022-10-18T00:09:47.366Z,23.73
2022-10-18T00:12:14.828Z,18.65
2022-10-18T00:14:42.128Z,17.35
2022-10-18T00:17:09.592Z,16.30
2022-10-18T00:19:36.838Z,18.73
2022-10-18T00:22:04.364Z,15.40
2022-10-18T00:24:31.718Z,18.08
2022-10-18T00:26:59.111Z,14.88
2022-10-18T00:29:26.418Z,14.27
2022-10-18T00:39:44.281Z,14.30
2022-10-18T00:42:14.995Z,11.95
2022-10-18T00:44:42.253Z,14.48
2022-10-18T00:50:52.332Z,10.77
2022-10-18T00:56:51.165Z,11.52
2022-10-18T00:59:19.066Z,9.50
2022-10-18T01:05:18.941Z,12.93
2022-10-18T01:08:15.815Z,8.98
2022-10-18T01:10:51.661Z,11.55
2022-10-18T01:13:25.963Z,10.05
2022-10-18T01:18:28.456Z,9.95
2022-10-18T01:20:55.701Z,9.52
2022-10-18T01:23:23.191Z,13.75
2022-10-18T01:26:00.244Z,11.20
2022-10-18T01:28:34.304Z,15.02
2022-10-18T01:31:03.558Z,9.27
2022-10-18T01:37:04.472Z,9.73
2022-10-18T01:39:34.768Z,11.73
2022-10-18T01:42:05.984Z,13.60
2022-10-18T01:44:34.020Z,15.20
2022-10-18T01:47:01.358Z,10.95
2022-10-18T01:49:29.189Z,10.10
2022-10-18T01:51:56.514Z,13.00
2022-10-18T01:54:28.826Z,10.93
2022-10-18T01:57:02.046Z,9.15
2022-10-18T01:59:48.778Z,12.15
2022-10-18T02:02:24.862Z,10.02
2022-10-18T02:05:09.875Z,10.68
2022-10-18T02:11:04.517Z,12.05
2022-10-18T02:13:47.172Z,11.68
2022-10-18T02:16:17.716Z,9.15
2022-10-18T02:19:14.400Z,10.68
2022-10-18T02:21:43.257Z,11.73
2022-10-18T02:24:12.630Z,10.30
2022-10-18T02:26:40.464Z,12.10
2022-10-18T02:29:08.324Z,10.00
2022-10-18T02:31:44.160Z,12.82
2022-10-18T02:34:31.488Z,12.70
2022-10-18T02:37:31.488Z,14.02
2022-10-18T02:39:58.922Z,12.57
2022-10-18T02:42:32.877Z,16.55
2022-10-18T02:45:00.416Z,13.80
2022-10-18T02:47:27.884Z,11.50
2022-10-18T02:49:55.149Z,14.02
2022-10-18T02:52:22.582Z,15.30
2022-10-18T02:54:49.812Z,13.00
2022-10-18T02:57:19.386Z,10.63
2022-10-18T02:59:46.659Z,14.13
2022-10-18T03:02:14.129Z,12.85
2022-10-18T03:04:53.698Z,18.63
2022-10-18T03:07:21.161Z,11.70
2022-10-18T03:10:03.971Z,12.10
2022-10-18T03:12:31.413Z,12.00
2022-10-18T03:14:58.845Z,14.05
2022-10-18T03:17:26.377Z,13.70
2022-10-18T03:19:53.675Z,13.02
2022-10-18T03:22:21.554Z,13.13
2022-10-18T03:24:48.816Z,16.85
2022-10-18T03:27:16.296Z,12.93
2022-10-18T03:29:43.602Z,14.05
2022-10-18T03:32:11.153Z,14.93
2022-10-18T03:34:39.102Z,13.88
2022-10-18T03:37:08.030Z,14.02
2022-10-18T03:39:35.278Z,14.00
2022-10-18T03:42:02.988Z,13.15
2022-10-18T03:44:30.364Z,13.68
2022-10-18T03:46:57.881Z,15.13
2022-10-18T03:49:25.254Z,17.30
2022-10-18T03:51:52.694Z,15.98
2022-10-18T03:54:19.922Z,21.52
2022-10-18T03:56:47.451Z,17.30
2022-10-18T03:59:14.715Z,13.32
2022-10-18T04:01:42.473Z,13.02
2022-10-18T04:07:41.252Z,13.88
2022-10-18T04:13:49.889Z,13.73
2022-10-18T04:16:17.324Z,13.93
2022-10-18T04:18:44.641Z,12.07
2022-10-18T04:21:12.128Z,16.45
2022-10-18T04:23:39.507Z,17.00
2022-10-18T04:26:07.253Z,13.75
2022-10-18T04:28:35.222Z,18.10
2022-10-18T04:31:02.703Z,15.13
2022-10-18T04:33:29.970Z,19.23
2022-10-18T04:39:53.704Z,14.45
2022-10-18T04:42:22.316Z,18.08
2022-10-18T04:44:49.895Z,20.55
2022-10-18T04:47:17.517Z,19.83
2022-10-18T04:49:45.024Z,24.58
2022-10-18T04:52:12.613Z,25.95
2022-10-18T04:54:39.854Z,26.15
2022-10-18T04:57:07.419Z,31.73
2022-10-18T04:59:34.693Z,26.17
2022-10-18T05:04:29.328Z,34.75
2022-10-18T05:10:19.146Z,24.17
2022-10-18T05:16:08.431Z,33.05
2022-10-18T05:18:35.984Z,23.92
2022-10-18T05:21:03.271Z,23.52
2022-10-18T05:23:30.742Z,23.10
2022-10-18T05:26:01.230Z,25.92
2022-10-18T05:28:44.127Z,26.05
2022-10-18T05:31:11.720Z,21.73
2022-10-18T05:33:51.466Z,23.20
2022-10-18T05:36:19.011Z,26.75
2022-10-18T05:38:46.479Z,25.58
2022-10-18T05:41:15.887Z,20.30
2022-10-18T05:43:43.365Z,23.10
2022-10-18T05:46:15.180Z,28.15
2022-10-18T05:48:44.090Z,20.10
2022-10-18T05:51:11.369Z,20.45
2022-10-18T05:53:39.047Z,24.90
2022-10-18T05:56:06.797Z,20.70
2022-10-18T05:58:35.243Z,22.05
2022-10-18T06:01:03.314Z,22.88
2022-10-18T06:03:31.177Z,18.35
2022-10-18T06:05:59.760Z,28.67
2022-10-18T06:08:30.762Z,24.77
2022-10-18T06:10:58.010Z,25.35
2022-10-18T06:13:27.158Z,24.77
2022-10-18T06:15:55.977Z,23.08
2022-10-18T06:18:23.533Z,20.90
2022-10-18T07:31:27.975Z,14.95
2022-10-18T07:46:20.297Z,17.10
2022-10-18T07:48:47.945Z,12.23
2022-10-18T08:47:05.141Z,12.20
2022-10-18T10:05:24.599Z,7.78
2022-10-18T10:10:28.352Z,8.63
2022-10-18T10:15:37.101Z,10.02
2022-10-18T10:24:25.101Z,9.57
2022-10-18T10:46:52.644Z,10.30
2022-10-18T11:05:55.770Z,11.90
2022-10-18T11:25:25.038Z,12.05
2022-10-18T12:14:20.646Z,11.90
2022-10-18T13:34:49.285Z,10.85
2022-10-18T13:39:44.947Z,18.25
2022-10-18T13:44:41.349Z,14.13
2022-10-18T13:52:49.183Z,13.90
2022-10-18T14:20:49.006Z,13.57
2022-10-18T14:34:02.647Z,22.20
2022-10-18T14:36:39.547Z,15.52
2022-10-18T14:39:19.492Z,15.20
2022-10-18T14:41:53.556Z,13.45
2022-10-18T14:44:26.215Z,9.50
2022-10-18T14:47:32.392Z,9.93
2022-10-18T14:50:00.429Z,7.45
2022-10-18T14:55:03.694Z,8.85
2022-10-18T15:00:07.158Z,7.20
2022-10-18T15:02:39.087Z,10.13
2022-10-18T15:05:22.428Z,5.28
2022-10-18T15:08:09.395Z,4.80
2022-10-18T15:10:36.815Z,4.20
2022-10-18T15:13:12.063Z,4.60
2022-10-18T15:15:40.054Z,3.83
2022-10-18T15:18:20.422Z,3.15
2022-10-18T15:21:14.374Z,2.05
2022-10-18T15:23:41.812Z,2.55
2022-10-18T15:26:12.639Z,3.33
2022-10-18T15:28:44.160Z,2.33
2022-10-18T15:31:21.548Z,3.28
2022-10-18T15:33:49.140Z,2.42
2022-10-18T15:36:29.216Z,2.10
2022-10-18T15:39:31.379Z,2.38
2022-10-18T15:41:59.454Z,3.53
2022-10-18T15:44:32.840Z,1.80
2022-10-18T15:47:09.270Z,1.80
2022-10-18T15:52:53.792Z,1.27
2022-10-18T15:55:29.782Z,1.60
2022-10-18T15:58:32.034Z,1.42
2022-10-18T16:01:00.903Z,1.10
2022-10-18T16:03:28.457Z,2.20
2022-10-18T16:05:59.256Z,3.92
2022-10-18T16:08:28.513Z,2.85
2022-10-18T16:10:56.597Z,2.05
2022-10-18T16:13:24.134Z,2.72
2022-10-18T16:15:52.082Z,2.08
2022-10-18T16:18:29.785Z,2.58
2022-10-18T16:20:57.254Z,2.70
2022-10-18T16:26:50.371Z,4.78
2022-10-18T16:29:19.073Z,3.38
2022-10-18T16:31:46.709Z,3.40
2022-10-18T16:34:14.154Z,4.00
2022-10-18T16:36:41.656Z,5.03
2022-10-18T16:39:13.868Z,4.18
2022-10-18T16:41:41.362Z,4.50
2022-10-18T16:44:08.674Z,5.13
2022-10-18T16:46:36.260Z,4.10
2022-10-18T16:49:35.072Z,5.53
2022-10-18T16:52:02.618Z,4.70
2022-10-18T16:54:40.949Z,6.05
2022-10-18T16:57:09.112Z,8.50
2022-10-18T16:59:38.853Z,6.85
2022-10-18T17:02:08.957Z,4.40
2022-10-18T17:04:36.366Z,4.35
2022-10-18T17:07:03.933Z,4.82
2022-10-18T17:09:31.269Z,3.40
2022-10-18T17:11:58.737Z,4.95
2022-10-18T17:14:26.037Z,6.32
2022-10-18T17:16:55.892Z,5.68
2022-10-18T17:19:31.053Z,5.32
2022-10-18T17:22:02.418Z,4.05
2022-10-18T17:28:00.195Z,4.75
2022-10-18T17:30:27.859Z,7.95
2022-10-18T17:32:55.722Z,5.97
2022-10-18T17:35:23.339Z,7.65
2022-10-18T17:37:51.347Z,6.72
2022-10-18T17:40:18.916Z,5.28
2022-10-18T17:42:46.414Z,4.57
2022-10-18T17:45:13.848Z,7.65
2022-10-18T17:47:41.291Z,6.00
2022-10-18T17:50:08.698Z,5.85
2022-10-18T17:52:40.406Z,10.43
2022-10-18T17:55:07.992Z,13.00
2022-10-18T17:57:36.168Z,6.53
2022-10-18T18:00:04.521Z,8.32
2022-10-18T18:02:32.286Z,8.90
2022-10-18T18:04:59.778Z,8.68
2022-10-18T18:07:27.427Z,7.97
2022-10-18T18:09:55.442Z,8.27
2022-10-18T18:12:23.266Z,7.47
2022-10-18T18:14:50.591Z,7.10
2022-10-18T18:17:24.812Z,6.38
2022-10-18T18:20:01.712Z,8.35
2022-10-18T18:22:29.253Z,7.45
2022-10-18T18:24:56.603Z,8.48
2022-10-18T18:27:24.159Z,8.68
2022-10-18T18:29:51.428Z,7.38
2022-10-18T18:32:18.945Z,8.13
2022-10-18T18:34:46.245Z,8.05
2022-10-18T18:37:13.724Z,7.68
2022-10-18T18:39:41.203Z,11.23
2022-10-18T18:42:08.653Z,9.45
2022-10-18T18:44:37.343Z,9.68
2022-10-18T18:47:06.528Z,8.90
2022-10-18T18:49:35.704Z,9.23
2022-10-18T18:52:03.288Z,7.68
2022-10-18T18:54:30.608Z,9.30
2022-10-18T18:56:58.202Z,13.82
2022-10-18T18:59:25.612Z,12.55
2022-10-18T19:01:53.122Z,8.52
2022-10-18T19:04:20.407Z,11.55
2022-10-18T19:06:47.893Z,8.48
2022-10-18T19:09:17.327Z,9.48
2022-10-18T19:11:45.479Z,10.82
2022-10-18T19:14:13.214Z,10.05
2022-10-18T19:16:41.627Z,8.88
2022-10-18T19:19:16.098Z,13.65
2022-10-18T19:21:48.084Z,10.40
2022-10-18T19:24:15.810Z,11.27
2022-10-18T19:26:49.497Z,15.43
2022-10-18T19:29:16.823Z,10.13
2022-10-18T19:31:44.728Z,10.93
2022-10-18T19:34:12.782Z,11.43
2022-10-18T19:36:41.041Z,10.90
2022-10-18T19:39:09.198Z,14.68
2022-10-18T19:41:36.946Z,11.45
2022-10-18T19:44:05.083Z,11.32
2022-10-18T19:46:41.246Z,12.20
2022-10-18T19:49:08.675Z,12.25
2022-10-18T19:51:36.338Z,13.73
2022-10-18T19:54:03.858Z,12.32
2022-10-18T19:56:31.756Z,10.40
2022-10-18T19:58:59.428Z,13.45
2022-10-18T20:01:28.472Z,10.32
2022-10-18T20:03:56.213Z,10.35
2022-10-18T20:06:25.928Z,12.57
2022-10-18T20:08:53.905Z,8.93
2022-10-18T20:11:22.658Z,9.82
2022-10-18T20:13:50.510Z,9.57
2022-10-18T20:16:20.129Z,10.10
2022-10-18T20:18:49.521Z,11.27
2022-10-18T20:21:17.250Z,12.00
2022-10-18T20:23:44.575Z,15.75
2022-10-18T20:26:18.183Z,16.50
2022-10-18T20:28:48.499Z,19.58
2022-10-18T20:31:17.069Z,19.10
2022-10-18T20:33:45.447Z,20.55
2022-10-18T20:36:14.441Z,19.27
2022-10-18T20:38:42.542Z,18.80
2022-10-18T20:41:12.198Z,17.25
2022-10-18T20:43:40.050Z,19.08
2022-10-18T20:46:07.734Z,20.38
2022-10-18T20:48:35.411Z,19.20
2022-10-18T20:51:03.832Z,17.70
2022-10-18T20:53:34.445Z,16.55
2022-10-18T20:56:03.107Z,17.75
2022-10-18T20:58:30.444Z,16.17
2022-10-18T21:01:04.444Z,15.77
2022-10-18T21:03:31.863Z,15.10
2022-10-18T21:05:59.298Z,16.05
2022-10-18T21:08:26.744Z,16.75
2022-10-18T21:10:54.316Z,17.20
2022-10-18T21:13:21.596Z,19.23
2022-10-18T21:15:55.427Z,18.70
2022-10-18T21:18:24.149Z,17.55
2022-10-18T21:20:54.015Z,18.20
2022-10-18T21:23:21.372Z,20.05
2022-10-18T21:25:49.254Z,18.25
2022-10-18T21:28:19.608Z,18.17
2022-10-18T21:30:47.156Z,19.77
2022-10-18T21:33:14.448Z,18.65
2022-10-18T21:35:41.967Z,21.27
2022-10-18T21:38:09.344Z,22.40
2022-10-18T21:40:36.997Z,21.60
2022-10-18T21:43:04.261Z,21.77
2022-10-18T21:45:31.819Z,20.50
2022-10-18T21:47:59.396Z,21.05
2022-10-18T21:50:30.918Z,20.45
2022-10-18T21:52:58.222Z,18.60
2022-10-18T21:55:25.695Z,19.38
2022-10-18T21:57:52.980Z,20.85
2022-10-18T22:00:20.660Z,16.63
2022-10-18T22:02:48.200Z,19.55
2022-10-18T22:05:15.876Z,22.35
2022-10-18T22:07:43.131Z,21.60
2022-10-18T22:10:10.744Z,24.15
2022-10-18T22:12:38.029Z,20.00
2022-10-18T22:15:05.720Z,19.08
2022-10-18T22:17:33.403Z,17.58
2022-10-18T22:20:01.202Z,20.08
2022-10-18T22:22:28.563Z,22.25
2022-10-18T22:24:56.047Z,27.10
2022-10-18T22:27:23.329Z,17.02
2022-10-18T22:29:50.953Z,15.50
2022-10-18T22:32:18.421Z,14.15
2022-10-18T22:34:45.938Z,17.27
2022-10-18T22:37:13.238Z,15.65
2022-10-18T22:39:40.676Z,15.15
2022-10-18T22:42:07.942Z,15.15
2022-10-18T22:44:35.399Z,17.63
2022-10-18T22:47:02.761Z,12.00
2022-10-18T22:49:30.207Z,15.35
2022-10-18T23:01:49.765Z,13.52
2022-10-18T23:16:38.488Z,13.43
2022-10-18T23:21:34.763Z,16.83
2022-10-18T23:24:02.244Z,13.05
2022-10-18T23:26:29.549Z,10.45
2022-10-18T23:28:57.188Z,9.30
2022-10-18T23:31:26.409Z,10.80
2022-10-18T23:33:55.563Z,12.55
2022-10-18T23:36:23.186Z,12.88
2022-10-18T23:38:51.035Z,16.67
2022-10-18T23:41:18.520Z,11.05
2022-10-18T23:43:46.172Z,10.57
2022-10-18T23:46:14.056Z,13.90
2022-10-18T23:48:42.792Z,13.23
2022-10-18T23:51:10.375Z,12.23
2022-10-18T23:53:38.277Z,13.90
2022-10-18T23:56:07.354Z,15.18
2022-10-18T23:58:35.606Z,15.25
